sensor_id;sensor_type;location;lat;lon;timestamp;temperature;humidity
32524;DHT22;18965;52.242;20.886;2022-07-29T00:01:23;17.60;65.40
32524;DHT22;18965;52.242;20.886;2022-07-29T00:03:55;17.60;65.40
32524;DHT22;18965;52.242;20.886;2022-07-29T00:06:24;17.50;65.50
32524;DHT22;18965;52.242;20.886;2022-07-29T00:08:50;17.50;65.50
32524;DHT22;18965;52.242;20.886;2022-07-29T00:11:16;17.50;65.60
32524;DHT22;18965;52.242;20.886;2022-07-29T00:13:42;17.50;65.60
32524;DHT22;18965;52.242;20.886;2022-07-29T00:16:08;17.50;65.70
32524;DHT22;18965;52.242;20.886;2022-07-29T00:18:33;17.50;65.70
32524;DHT22;18965;52.242;20.886;2022-07-29T00:21:18;17.50;65.70
32524;DHT22;18965;52.242;20.886;2022-07-29T00:23:44;17.50;66.00
32524;DHT22;18965;52.242;20.886;2022-07-29T00:26:10;17.50;65.90
32524;DHT22;18965;52.242;20.886;2022-07-29T00:28:41;17.50;65.80
32524;DHT22;18965;52.242;20.886;2022-07-29T00:31:07;17.50;65.90
32524;DHT22;18965;52.242;20.886;2022-07-29T00:33:33;17.40;65.90
32524;DHT22;18965;52.242;20.886;2022-07-29T00:35:59;17.50;66.10
32524;DHT22;18965;52.242;20.886;2022-07-29T00:38:25;17.40;66.00
32524;DHT22;18965;52.242;20.886;2022-07-29T00:40:54;17.40;66.10
32524;DHT22;18965;52.242;20.886;2022-07-29T00:43:20;17.40;66.10
32524;DHT22;18965;52.242;20.886;2022-07-29T00:45:49;17.40;66.20
32524;DHT22;18965;52.242;20.886;2022-07-29T00:48:15;17.40;66.40
32524;DHT22;18965;52.242;20.886;2022-07-29T00:50:40;17.40;66.40
32524;DHT22;18965;52.242;20.886;2022-07-29T00:53:07;17.40;66.60
32524;DHT22;18965;52.242;20.886;2022-07-29T00:55:33;17.40;66.80
32524;DHT22;18965;52.242;20.886;2022-07-29T00:58:47;17.30;66.70
32524;DHT22;18965;52.242;20.886;2022-07-29T01:00:53;17.30;66.80
32524;DHT22;18965;52.242;20.886;2022-07-29T01:03:19;17.30;66.90
32524;DHT22;18965;52.242;20.886;2022-07-29T01:05:45;17.30;67.00
32524;DHT22;18965;52.242;20.886;2022-07-29T01:08:13;17.30;67.20
32524;DHT22;18965;52.242;20.886;2022-07-29T01:10:41;17.30;67.30
32524;DHT22;18965;52.242;20.886;2022-07-29T01:13:11;17.30;67.20
32524;DHT22;18965;52.242;20.886;2022-07-29T01:15:43;17.30;67.30
32524;DHT22;18965;52.242;20.886;2022-07-29T01:18:18;17.30;67.30
32524;DHT22;18965;52.242;20.886;2022-07-29T01:24:30;17.30;67.50
32524;DHT22;18965;52.242;20.886;2022-07-29T01:30:07;17.20;67.50
32524;DHT22;18965;52.242;20.886;2022-07-29T01:32:36;17.20;67.40
32524;DHT22;18965;52.242;20.886;2022-07-29T01:35:26;17.20;67.70
32524;DHT22;18965;52.242;20.886;2022-07-29T01:38:13;17.20;67.80
32524;DHT22;18965;52.242;20.886;2022-07-29T01:40:53;17.20;68.10
32524;DHT22;18965;52.242;20.886;2022-07-29T01:43:23;17.10;68.40
32524;DHT22;18965;52.242;20.886;2022-07-29T01:46:03;17.10;68.00
32524;DHT22;18965;52.242;20.886;2022-07-29T01:51:14;17.10;68.30
32524;DHT22;18965;52.242;20.886;2022-07-29T01:53:46;17.10;68.50
32524;DHT22;18965;52.242;20.886;2022-07-29T01:56:14;17.10;68.40
32524;DHT22;18965;52.242;20.886;2022-07-29T01:58:43;17.10;68.50
32524;DHT22;18965;52.242;20.886;2022-07-29T02:01:10;17.00;68.70
32524;DHT22;18965;52.242;20.886;2022-07-29T02:03:38;17.00;68.80
32524;DHT22;18965;52.242;20.886;2022-07-29T02:06:06;17.00;68.90
32524;DHT22;18965;52.242;20.886;2022-07-29T02:08:34;17.00;69.00
32524;DHT22;18965;52.242;20.886;2022-07-29T02:11:01;17.00;69.20
32524;DHT22;18965;52.242;20.886;2022-07-29T02:13:30;17.00;69.20
32524;DHT22;18965;52.242;20.886;2022-07-29T02:15:58;16.90;69.30
32524;DHT22;18965;52.242;20.886;2022-07-29T02:18:28;16.90;69.50
32524;DHT22;18965;52.242;20.886;2022-07-29T02:20:56;16.90;70.30
32524;DHT22;18965;52.242;20.886;2022-07-29T02:23:24;16.90;69.60
32524;DHT22;18965;52.242;20.886;2022-07-29T02:25:53;16.90;69.80
32524;DHT22;18965;52.242;20.886;2022-07-29T02:28:25;16.90;69.90
32524;DHT22;18965;52.242;20.886;2022-07-29T02:30:52;16.80;70.00
32524;DHT22;18965;52.242;20.886;2022-07-29T02:33:23;16.90;70.10
32524;DHT22;18965;52.242;20.886;2022-07-29T02:35:50;16.80;70.30
32524;DHT22;18965;52.242;20.886;2022-07-29T02:38:18;16.80;70.20
32524;DHT22;18965;52.242;20.886;2022-07-29T02:41:11;16.80;70.50
32524;DHT22;18965;52.242;20.886;2022-07-29T02:43:38;16.80;70.50
32524;DHT22;18965;52.242;20.886;2022-07-29T02:46:14;16.80;70.50
32524;DHT22;18965;52.242;20.886;2022-07-29T02:48:51;16.70;70.70
32524;DHT22;18965;52.242;20.886;2022-07-29T02:51:29;16.70;71.00
32524;DHT22;18965;52.242;20.886;2022-07-29T02:54:01;16.70;70.80
32524;DHT22;18965;52.242;20.886;2022-07-29T02:56:33;16.70;71.00
32524;DHT22;18965;52.242;20.886;2022-07-29T02:59:08;16.70;71.00
32524;DHT22;18965;52.242;20.886;2022-07-29T03:01:35;16.70;71.30
32524;DHT22;18965;52.242;20.886;2022-07-29T03:04:05;16.60;71.20
32524;DHT22;18965;52.242;20.886;2022-07-29T03:06:33;16.70;71.30
32524;DHT22;18965;52.242;20.886;2022-07-29T03:09:00;16.60;71.40
32524;DHT22;18965;52.242;20.886;2022-07-29T03:11:26;16.70;71.50
32524;DHT22;18965;52.242;20.886;2022-07-29T03:13:53;16.70;71.60
32524;DHT22;18965;52.242;20.886;2022-07-29T03:16:20;16.70;71.70
32524;DHT22;18965;52.242;20.886;2022-07-29T03:18:47;16.70;71.80
32524;DHT22;18965;52.242;20.886;2022-07-29T03:21:13;16.70;71.90
32524;DHT22;18965;52.242;20.886;2022-07-29T03:23:44;16.70;71.90
32524;DHT22;18965;52.242;20.886;2022-07-29T03:26:12;16.70;72.20
32524;DHT22;18965;52.242;20.886;2022-07-29T03:28:38;16.70;72.20
32524;DHT22;18965;52.242;20.886;2022-07-29T03:31:04;16.80;72.20
32524;DHT22;18965;52.242;20.886;2022-07-29T03:33:30;16.80;72.30
32524;DHT22;18965;52.242;20.886;2022-07-29T03:35:56;16.80;72.50
32524;DHT22;18965;52.242;20.886;2022-07-29T03:38:25;16.80;72.60
32524;DHT22;18965;52.242;20.886;2022-07-29T03:41:06;16.80;72.60
32524;DHT22;18965;52.242;20.886;2022-07-29T03:43:35;16.80;73.20
32524;DHT22;18965;52.242;20.886;2022-07-29T03:46:02;16.80;72.70
32524;DHT22;18965;52.242;20.886;2022-07-29T03:48:30;16.80;72.70
32524;DHT22;18965;52.242;20.886;2022-07-29T03:50:58;16.90;72.90
32524;DHT22;18965;52.242;20.886;2022-07-29T03:53:24;16.90;72.90
32524;DHT22;18965;52.242;20.886;2022-07-29T03:55:54;16.90;72.90
32524;DHT22;18965;52.242;20.886;2022-07-29T03:58:20;17.00;73.10
32524;DHT22;18965;52.242;20.886;2022-07-29T04:00:47;17.00;72.90
32524;DHT22;18965;52.242;20.886;2022-07-29T04:03:13;17.00;72.90
32524;DHT22;18965;52.242;20.886;2022-07-29T04:05:39;17.10;73.00
32524;DHT22;18965;52.242;20.886;2022-07-29T04:08:05;17.10;72.90
32524;DHT22;18965;52.242;20.886;2022-07-29T04:10:31;17.10;73.00
32524;DHT22;18965;52.242;20.886;2022-07-29T04:13:00;17.20;73.00
32524;DHT22;18965;52.242;20.886;2022-07-29T04:15:26;17.20;73.00
32524;DHT22;18965;52.242;20.886;2022-07-29T04:17:54;17.30;73.00
32524;DHT22;18965;52.242;20.886;2022-07-29T04:20:20;17.30;73.00
32524;DHT22;18965;52.242;20.886;2022-07-29T04:22:46;17.30;73.00
32524;DHT22;18965;52.242;20.886;2022-07-29T04:25:11;17.30;72.80
32524;DHT22;18965;52.242;20.886;2022-07-29T04:27:37;17.40;72.90
32524;DHT22;18965;52.242;20.886;2022-07-29T04:30:23;17.40;72.70
32524;DHT22;18965;52.242;20.886;2022-07-29T04:32:49;17.50;72.80
32524;DHT22;18965;52.242;20.886;2022-07-29T04:35:14;17.50;72.60
32524;DHT22;18965;52.242;20.886;2022-07-29T04:37:40;17.50;72.60
32524;DHT22;18965;52.242;20.886;2022-07-29T04:40:09;17.60;72.50
32524;DHT22;18965;52.242;20.886;2022-07-29T04:42:35;17.60;72.60
32524;DHT22;18965;52.242;20.886;2022-07-29T04:45:01;17.60;72.30
32524;DHT22;18965;52.242;20.886;2022-07-29T04:47:27;17.70;72.30
32524;DHT22;18965;52.242;20.886;2022-07-29T04:49:53;17.70;72.20
32524;DHT22;18965;52.242;20.886;2022-07-29T04:52:18;17.80;72.30
32524;DHT22;18965;52.242;20.886;2022-07-29T04:54:44;17.80;72.20
32524;DHT22;18965;52.242;20.886;2022-07-29T04:57:10;17.90;72.10
32524;DHT22;18965;52.242;20.886;2022-07-29T04:59:36;18.10;72.10
32524;DHT22;18965;52.242;20.886;2022-07-29T05:02:02;18.20;72.00
32524;DHT22;18965;52.242;20.886;2022-07-29T05:04:27;18.20;72.10
32524;DHT22;18965;52.242;20.886;2022-07-29T05:06:56;18.40;72.30
32524;DHT22;18965;52.242;20.886;2022-07-29T05:09:22;18.70;72.10
32524;DHT22;18965;52.242;20.886;2022-07-29T05:11:48;18.90;71.40
32524;DHT22;18965;52.242;20.886;2022-07-29T05:14:13;19.00;71.10
32524;DHT22;18965;52.242;20.886;2022-07-29T05:16:39;19.20;71.10
32524;DHT22;18965;52.242;20.886;2022-07-29T05:19:06;19.60;70.20
32524;DHT22;18965;52.242;20.886;2022-07-29T05:21:32;19.80;68.90
32524;DHT22;18965;52.242;20.886;2022-07-29T05:23:57;19.90;68.40
32524;DHT22;18965;52.242;20.886;2022-07-29T05:26:23;20.00;68.00
32524;DHT22;18965;52.242;20.886;2022-07-29T05:28:52;20.20;67.70
32524;DHT22;18965;52.242;20.886;2022-07-29T05:31:19;20.40;66.90
32524;DHT22;18965;52.242;20.886;2022-07-29T05:36:56;20.70;66.50
32524;DHT22;18965;52.242;20.886;2022-07-29T05:39:22;20.90;66.80
32524;DHT22;18965;52.242;20.886;2022-07-29T05:41:48;21.20;65.80
32524;DHT22;18965;52.242;20.886;2022-07-29T05:44:14;21.60;65.10
32524;DHT22;18965;52.242;20.886;2022-07-29T05:46:40;21.90;63.50
32524;DHT22;18965;52.242;20.886;2022-07-29T05:49:06;22.00;62.50
32524;DHT22;18965;52.242;20.886;2022-07-29T05:51:42;22.00;61.20
32524;DHT22;18965;52.242;20.886;2022-07-29T05:54:07;22.10;61.50
32524;DHT22;18965;52.242;20.886;2022-07-29T05:56:36;22.20;61.00
32524;DHT22;18965;52.242;20.886;2022-07-29T05:59:05;22.40;59.60
32524;DHT22;18965;52.242;20.886;2022-07-29T06:01:30;22.40;59.70
32524;DHT22;18965;52.242;20.886;2022-07-29T06:03:56;23.00;60.00
32524;DHT22;18965;52.242;20.886;2022-07-29T06:06:22;23.70;58.50
32524;DHT22;18965;52.242;20.886;2022-07-29T06:08:48;24.20;57.00
32524;DHT22;18965;52.242;20.886;2022-07-29T06:11:14;24.30;55.30
32524;DHT22;18965;52.242;20.886;2022-07-29T06:13:39;24.20;55.00
32524;DHT22;18965;52.242;20.886;2022-07-29T06:16:05;24.10;55.30
32524;DHT22;18965;52.242;20.886;2022-07-29T06:18:31;24.00;55.30
32524;DHT22;18965;52.242;20.886;2022-07-29T06:20:57;23.80;55.40
32524;DHT22;18965;52.242;20.886;2022-07-29T06:23:23;23.80;55.20
32524;DHT22;18965;52.242;20.886;2022-07-29T06:25:48;24.00;55.20
32524;DHT22;18965;52.242;20.886;2022-07-29T06:28:16;24.80;55.30
32524;DHT22;18965;52.242;20.886;2022-07-29T06:30:41;25.50;53.70
32524;DHT22;18965;52.242;20.886;2022-07-29T06:33:07;26.50;52.60
32524;DHT22;18965;52.242;20.886;2022-07-29T06:35:34;27.20;50.40
32524;DHT22;18965;52.242;20.886;2022-07-29T06:38:01;27.60;48.50
32524;DHT22;18965;52.242;20.886;2022-07-29T06:40:27;28.30;46.50
32524;DHT22;18965;52.242;20.886;2022-07-29T06:43:12;28.50;45.00
32524;DHT22;18965;52.242;20.886;2022-07-29T06:45:37;28.10;45.00
32524;DHT22;18965;52.242;20.886;2022-07-29T06:48:06;27.50;45.40
32524;DHT22;18965;52.242;20.886;2022-07-29T06:50:32;27.00;46.50
32524;DHT22;18965;52.242;20.886;2022-07-29T06:52:58;26.60;47.10
32524;DHT22;18965;52.242;20.886;2022-07-29T06:55:24;26.10;47.20
32524;DHT22;18965;52.242;20.886;2022-07-29T06:57:50;25.60;48.00
32524;DHT22;18965;52.242;20.886;2022-07-29T07:00:16;25.30;48.80
32524;DHT22;18965;52.242;20.886;2022-07-29T07:02:41;24.90;49.10
32524;DHT22;18965;52.242;20.886;2022-07-29T07:05:07;24.60;49.90
32524;DHT22;18965;52.242;20.886;2022-07-29T07:07:33;24.40;50.10
32524;DHT22;18965;52.242;20.886;2022-07-29T07:09:59;24.20;50.80
32524;DHT22;18965;52.242;20.886;2022-07-29T07:12:25;24.10;51.50
32524;DHT22;18965;52.242;20.886;2022-07-29T07:14:50;24.00;51.90
32524;DHT22;18965;52.242;20.886;2022-07-29T07:17:16;23.90;52.30
32524;DHT22;18965;52.242;20.886;2022-07-29T07:19:42;23.90;52.40
32524;DHT22;18965;52.242;20.886;2022-07-29T07:22:08;23.90;52.50
32524;DHT22;18965;52.242;20.886;2022-07-29T07:24:33;23.80;52.30
32524;DHT22;18965;52.242;20.886;2022-07-29T07:26:59;23.70;52.60
32524;DHT22;18965;52.242;20.886;2022-07-29T07:29:25;23.70;53.40
32524;DHT22;18965;52.242;20.886;2022-07-29T07:31:51;23.80;52.90
32524;DHT22;18965;52.242;20.886;2022-07-29T07:34:16;23.80;52.70
32524;DHT22;18965;52.242;20.886;2022-07-29T07:36:42;23.80;52.70
32524;DHT22;18965;52.242;20.886;2022-07-29T07:39:08;23.80;53.10
32524;DHT22;18965;52.242;20.886;2022-07-29T07:41:34;23.80;52.90
32524;DHT22;18965;52.242;20.886;2022-07-29T07:44:00;23.80;53.40
32524;DHT22;18965;52.242;20.886;2022-07-29T07:46:25;23.80;52.30
32524;DHT22;18965;52.242;20.886;2022-07-29T07:48:51;23.80;52.40
32524;DHT22;18965;52.242;20.886;2022-07-29T07:51:18;23.80;52.70
32524;DHT22;18965;52.242;20.886;2022-07-29T07:53:44;23.80;52.80
32524;DHT22;18965;52.242;20.886;2022-07-29T07:56:10;23.80;52.90
32524;DHT22;18965;52.242;20.886;2022-07-29T07:58:36;23.90;53.20
32524;DHT22;18965;52.242;20.886;2022-07-29T08:01:02;23.90;52.50
32524;DHT22;18965;52.242;20.886;2022-07-29T08:03:28;23.90;53.00
32524;DHT22;18965;52.242;20.886;2022-07-29T08:05:54;23.90;52.90
32524;DHT22;18965;52.242;20.886;2022-07-29T08:08:20;23.90;52.60
32524;DHT22;18965;52.242;20.886;2022-07-29T08:10:46;23.90;52.80
32524;DHT22;18965;52.242;20.886;2022-07-29T08:13:20;23.90;53.10
32524;DHT22;18965;52.242;20.886;2022-07-29T08:15:46;23.90;53.30
32524;DHT22;18965;52.242;20.886;2022-07-29T08:18:13;23.90;53.00
32524;DHT22;18965;52.242;20.886;2022-07-29T08:20:39;23.90;53.00
32524;DHT22;18965;52.242;20.886;2022-07-29T08:23:07;23.90;52.80
32524;DHT22;18965;52.242;20.886;2022-07-29T08:25:35;23.90;52.80
32524;DHT22;18965;52.242;20.886;2022-07-29T08:28:01;23.90;52.70
32524;DHT22;18965;52.242;20.886;2022-07-29T08:30:27;23.90;52.60
32524;DHT22;18965;52.242;20.886;2022-07-29T08:32:53;23.80;52.40
32524;DHT22;18965;52.242;20.886;2022-07-29T08:35:23;23.80;52.70
32524;DHT22;18965;52.242;20.886;2022-07-29T08:37:49;23.80;52.90
32524;DHT22;18965;52.242;20.886;2022-07-29T08:40:15;23.90;52.70
32524;DHT22;18965;52.242;20.886;2022-07-29T08:42:41;23.90;52.40
32524;DHT22;18965;52.242;20.886;2022-07-29T08:45:08;24.00;52.30
32524;DHT22;18965;52.242;20.886;2022-07-29T08:47:33;24.10;52.60
32524;DHT22;18965;52.242;20.886;2022-07-29T08:50:04;24.20;52.60
32524;DHT22;18965;52.242;20.886;2022-07-29T08:52:33;24.40;52.50
32524;DHT22;18965;52.242;20.886;2022-07-29T08:55:02;24.50;51.70
32524;DHT22;18965;52.242;20.886;2022-07-29T08:57:29;24.60;52.40
32524;DHT22;18965;52.242;20.886;2022-07-29T08:59:55;24.80;51.80
32524;DHT22;18965;52.242;20.886;2022-07-29T09:02:35;24.90;51.70
32524;DHT22;18965;52.242;20.886;2022-07-29T09:05:02;25.00;50.90
32524;DHT22;18965;52.242;20.886;2022-07-29T09:07:28;25.10;50.60
32524;DHT22;18965;52.242;20.886;2022-07-29T09:09:54;25.20;50.60
32524;DHT22;18965;52.242;20.886;2022-07-29T09:12:22;25.30;50.10
32524;DHT22;18965;52.242;20.886;2022-07-29T09:14:50;25.40;50.00
32524;DHT22;18965;52.242;20.886;2022-07-29T09:17:16;25.40;50.20
32524;DHT22;18965;52.242;20.886;2022-07-29T09:19:43;25.40;49.90
32524;DHT22;18965;52.242;20.886;2022-07-29T09:22:09;25.40;49.50
32524;DHT22;18965;52.242;20.886;2022-07-29T09:24:46;25.40;49.30
32524;DHT22;18965;52.242;20.886;2022-07-29T09:27:22;25.30;49.00
32524;DHT22;18965;52.242;20.886;2022-07-29T09:30:05;25.30;49.10
32524;DHT22;18965;52.242;20.886;2022-07-29T09:32:33;25.10;48.30
32524;DHT22;18965;52.242;20.886;2022-07-29T09:35:23;25.10;49.10
32524;DHT22;18965;52.242;20.886;2022-07-29T09:37:50;25.10;49.60
32524;DHT22;18965;52.242;20.886;2022-07-29T09:40:27;25.20;49.40
32524;DHT22;18965;52.242;20.886;2022-07-29T09:42:53;25.30;48.30
32524;DHT22;18965;52.242;20.886;2022-07-29T09:45:32;25.30;48.50
32524;DHT22;18965;52.242;20.886;2022-07-29T09:47:59;25.40;48.50
32524;DHT22;18965;52.242;20.886;2022-07-29T09:50:42;25.50;48.60
32524;DHT22;18965;52.242;20.886;2022-07-29T09:53:09;25.50;47.80
32524;DHT22;18965;52.242;20.886;2022-07-29T09:55:49;25.40;47.20
32524;DHT22;18965;52.242;20.886;2022-07-29T09:58:20;25.30;47.00
32524;DHT22;18965;52.242;20.886;2022-07-29T10:00:48;25.30;48.00
32524;DHT22;18965;52.242;20.886;2022-07-29T10:03:15;25.30;48.00
32524;DHT22;18965;52.242;20.886;2022-07-29T10:05:42;25.30;48.00
32524;DHT22;18965;52.242;20.886;2022-07-29T10:08:09;25.30;48.10
32524;DHT22;18965;52.242;20.886;2022-07-29T10:10:38;25.30;47.20
32524;DHT22;18965;52.242;20.886;2022-07-29T10:13:09;25.30;46.70
32524;DHT22;18965;52.242;20.886;2022-07-29T10:15:41;25.30;46.60
32524;DHT22;18965;52.242;20.886;2022-07-29T10:18:10;25.30;46.90
32524;DHT22;18965;52.242;20.886;2022-07-29T10:20:37;25.30;47.20
32524;DHT22;18965;52.242;20.886;2022-07-29T10:23:04;25.40;47.00
32524;DHT22;18965;52.242;20.886;2022-07-29T10:25:30;25.60;47.10
32524;DHT22;18965;52.242;20.886;2022-07-29T10:27:56;25.70;47.40
32524;DHT22;18965;52.242;20.886;2022-07-29T10:30:23;25.90;46.70
32524;DHT22;18965;52.242;20.886;2022-07-29T10:33:14;26.00;46.20
32524;DHT22;18965;52.242;20.886;2022-07-29T10:44:06;26.30;44.60
32524;DHT22;18965;52.242;20.886;2022-07-29T10:46:38;26.30;44.80
32524;DHT22;18965;52.242;20.886;2022-07-29T10:59:43;26.10;43.60
32524;DHT22;18965;52.242;20.886;2022-07-29T11:05:06;25.80;44.40
32524;DHT22;18965;52.242;20.886;2022-07-29T11:07:34;25.80;44.70
32524;DHT22;18965;52.242;20.886;2022-07-29T11:15:05;25.80;45.00
32524;DHT22;18965;52.242;20.886;2022-07-29T11:34:21;25.80;44.30
32524;DHT22;18965;52.242;20.886;2022-07-29T11:39:41;25.90;45.20
32524;DHT22;18965;52.242;20.886;2022-07-29T11:45:06;26.10;44.40
32524;DHT22;18965;52.242;20.886;2022-07-29T11:47:36;26.10;44.60
32524;DHT22;18965;52.242;20.886;2022-07-29T11:50:04;26.10;44.30
32524;DHT22;18965;52.242;20.886;2022-07-29T11:52:38;26.10;44.10
32524;DHT22;18965;52.242;20.886;2022-07-29T11:55:10;26.20;44.00
32524;DHT22;18965;52.242;20.886;2022-07-29T11:57:37;26.20;43.90
32524;DHT22;18965;52.242;20.886;2022-07-29T12:00:06;26.20;44.10
32524;DHT22;18965;52.242;20.886;2022-07-29T12:02:42;26.20;44.00
32524;DHT22;18965;52.242;20.886;2022-07-29T12:05:10;26.10;43.20
32524;DHT22;18965;52.242;20.886;2022-07-29T12:07:39;26.00;43.00
32524;DHT22;18965;52.242;20.886;2022-07-29T12:10:06;26.00;43.30
32524;DHT22;18965;52.242;20.886;2022-07-29T12:12:33;26.00;43.80
32524;DHT22;18965;52.242;20.886;2022-07-29T12:15:20;26.00;43.60
32524;DHT22;18965;52.242;20.886;2022-07-29T12:17:47;26.10;44.10
32524;DHT22;18965;52.242;20.886;2022-07-29T12:20:13;26.20;43.70
32524;DHT22;18965;52.242;20.886;2022-07-29T12:22:42;26.20;43.00
32524;DHT22;18965;52.242;20.886;2022-07-29T12:25:10;26.30;43.10
32524;DHT22;18965;52.242;20.886;2022-07-29T12:27:37;26.50;43.10
32524;DHT22;18965;52.242;20.886;2022-07-29T12:30:09;26.50;42.70
32524;DHT22;18965;52.242;20.886;2022-07-29T12:32:46;26.60;43.40
32524;DHT22;18965;52.242;20.886;2022-07-29T12:35:18;26.70;42.80
32524;DHT22;18965;52.242;20.886;2022-07-29T12:37:51;26.60;41.40
32524;DHT22;18965;52.242;20.886;2022-07-29T12:40:18;26.50;42.60
32524;DHT22;18965;52.242;20.886;2022-07-29T12:43:10;26.50;42.70
32524;DHT22;18965;52.242;20.886;2022-07-29T12:45:41;26.50;42.80
32524;DHT22;18965;52.242;20.886;2022-07-29T12:48:08;26.50;42.60
32524;DHT22;18965;52.242;20.886;2022-07-29T12:50:36;26.50;42.60
32524;DHT22;18965;52.242;20.886;2022-07-29T12:53:09;26.50;42.50
32524;DHT22;18965;52.242;20.886;2022-07-29T12:55:45;26.60;42.30
32524;DHT22;18965;52.242;20.886;2022-07-29T12:58:47;26.60;42.10
32524;DHT22;18965;52.242;20.886;2022-07-29T13:01:17;26.70;42.80
32524;DHT22;18965;52.242;20.886;2022-07-29T13:03:58;26.80;42.20
32524;DHT22;18965;52.242;20.886;2022-07-29T13:06:44;26.80;42.20
32524;DHT22;18965;52.242;20.886;2022-07-29T13:09:15;26.80;41.90
32524;DHT22;18965;52.242;20.886;2022-07-29T13:11:46;26.80;42.00
32524;DHT22;18965;52.242;20.886;2022-07-29T13:17:13;26.80;41.70
32524;DHT22;18965;52.242;20.886;2022-07-29T13:22:09;26.60;42.20
32524;DHT22;18965;52.242;20.886;2022-07-29T13:27:16;26.80;41.70
32524;DHT22;18965;52.242;20.886;2022-07-29T13:29:43;26.70;41.10
32524;DHT22;18965;52.242;20.886;2022-07-29T13:32:09;26.80;41.70
32524;DHT22;18965;52.242;20.886;2022-07-29T13:34:34;26.80;41.60
32524;DHT22;18965;52.242;20.886;2022-07-29T13:37:00;26.80;42.00
32524;DHT22;18965;52.242;20.886;2022-07-29T13:39:26;26.90;41.80
32524;DHT22;18965;52.242;20.886;2022-07-29T13:41:52;27.00;41.70
32524;DHT22;18965;52.242;20.886;2022-07-29T13:44:18;26.80;41.40
32524;DHT22;18965;52.242;20.886;2022-07-29T13:46:44;26.80;41.30
32524;DHT22;18965;52.242;20.886;2022-07-29T13:49:09;26.70;41.20
32524;DHT22;18965;52.242;20.886;2022-07-29T13:51:37;26.70;41.30
32524;DHT22;18965;52.242;20.886;2022-07-29T13:54:03;26.70;41.40
32524;DHT22;18965;52.242;20.886;2022-07-29T13:56:32;26.60;41.60
32524;DHT22;18965;52.242;20.886;2022-07-29T13:58:58;26.50;41.30
32524;DHT22;18965;52.242;20.886;2022-07-29T14:01:24;26.50;41.30
32524;DHT22;18965;52.242;20.886;2022-07-29T14:03:50;26.40;41.30
32524;DHT22;18965;52.242;20.886;2022-07-29T14:06:16;26.30;41.40
32524;DHT22;18965;52.242;20.886;2022-07-29T14:08:42;26.30;42.00
32524;DHT22;18965;52.242;20.886;2022-07-29T14:11:08;26.20;42.10
32524;DHT22;18965;52.242;20.886;2022-07-29T14:13:34;26.20;41.80
32524;DHT22;18965;52.242;20.886;2022-07-29T14:16:00;26.20;41.80
32524;DHT22;18965;52.242;20.886;2022-07-29T14:18:26;26.10;41.90
32524;DHT22;18965;52.242;20.886;2022-07-29T14:20:52;26.00;41.80
32524;DHT22;18965;52.242;20.886;2022-07-29T14:23:18;26.00;41.70
32524;DHT22;18965;52.242;20.886;2022-07-29T14:25:44;25.90;41.60
32524;DHT22;18965;52.242;20.886;2022-07-29T14:28:09;25.90;42.10
32524;DHT22;18965;52.242;20.886;2022-07-29T14:30:35;25.90;41.80
32524;DHT22;18965;52.242;20.886;2022-07-29T14:33:01;25.80;41.60
32524;DHT22;18965;52.242;20.886;2022-07-29T14:35:27;25.80;42.10
32524;DHT22;18965;52.242;20.886;2022-07-29T14:37:54;25.80;42.20
32524;DHT22;18965;52.242;20.886;2022-07-29T14:40:20;25.80;41.80
32524;DHT22;18965;52.242;20.886;2022-07-29T14:42:45;25.90;42.00
32524;DHT22;18965;52.242;20.886;2022-07-29T14:45:11;25.80;41.80
32524;DHT22;18965;52.242;20.886;2022-07-29T14:47:38;25.90;41.90
32524;DHT22;18965;52.242;20.886;2022-07-29T14:50:05;25.80;41.90
32524;DHT22;18965;52.242;20.886;2022-07-29T14:52:31;25.80;41.80
32524;DHT22;18965;52.242;20.886;2022-07-29T14:54:57;25.80;41.70
32524;DHT22;18965;52.242;20.886;2022-07-29T14:57:23;25.80;41.60
32524;DHT22;18965;52.242;20.886;2022-07-29T14:59:49;25.70;41.40
32524;DHT22;18965;52.242;20.886;2022-07-29T15:02:18;25.70;41.20
32524;DHT22;18965;52.242;20.886;2022-07-29T15:04:43;25.60;41.60
32524;DHT22;18965;52.242;20.886;2022-07-29T15:07:11;25.60;41.50
32524;DHT22;18965;52.242;20.886;2022-07-29T15:09:37;25.60;41.30
32524;DHT22;18965;52.242;20.886;2022-07-29T15:12:03;25.60;41.50
32524;DHT22;18965;52.242;20.886;2022-07-29T15:14:30;25.50;41.40
32524;DHT22;18965;52.242;20.886;2022-07-29T15:16:57;25.50;41.80
32524;DHT22;18965;52.242;20.886;2022-07-29T15:19:23;25.60;41.90
32524;DHT22;18965;52.242;20.886;2022-07-29T15:21:49;25.50;41.60
32524;DHT22;18965;52.242;20.886;2022-07-29T15:24:19;25.50;41.40
32524;DHT22;18965;52.242;20.886;2022-07-29T15:26:45;25.50;41.80
32524;DHT22;18965;52.242;20.886;2022-07-29T15:29:12;25.50;41.80
32524;DHT22;18965;52.242;20.886;2022-07-29T15:31:38;25.40;41.40
32524;DHT22;18965;52.242;20.886;2022-07-29T15:34:04;25.40;41.30
32524;DHT22;18965;52.242;20.886;2022-07-29T15:36:30;25.30;41.30
32524;DHT22;18965;52.242;20.886;2022-07-29T15:38:56;25.20;41.30
32524;DHT22;18965;52.242;20.886;2022-07-29T15:41:22;25.20;41.50
32524;DHT22;18965;52.242;20.886;2022-07-29T15:43:49;25.10;41.50
32524;DHT22;18965;52.242;20.886;2022-07-29T15:46:17;25.10;41.60
32524;DHT22;18965;52.242;20.886;2022-07-29T15:49:06;25.00;41.60
32524;DHT22;18965;52.242;20.886;2022-07-29T15:51:33;25.00;42.40
32524;DHT22;18965;52.242;20.886;2022-07-29T15:54:05;24.90;41.80
32524;DHT22;18965;52.242;20.886;2022-07-29T15:56:33;24.90;41.90
32524;DHT22;18965;52.242;20.886;2022-07-29T15:58:59;24.90;41.90
32524;DHT22;18965;52.242;20.886;2022-07-29T16:01:25;24.80;42.00
32524;DHT22;18965;52.242;20.886;2022-07-29T16:03:51;24.80;42.20
32524;DHT22;18965;52.242;20.886;2022-07-29T16:06:17;24.80;41.90
32524;DHT22;18965;52.242;20.886;2022-07-29T16:08:43;24.70;41.80
32524;DHT22;18965;52.242;20.886;2022-07-29T16:11:09;24.80;42.20
32524;DHT22;18965;52.242;20.886;2022-07-29T16:13:35;24.80;42.00
32524;DHT22;18965;52.242;20.886;2022-07-29T16:16:01;24.80;42.00
32524;DHT22;18965;52.242;20.886;2022-07-29T16:18:26;24.80;41.80
32524;DHT22;18965;52.242;20.886;2022-07-29T16:20:52;24.80;41.90
32524;DHT22;18965;52.242;20.886;2022-07-29T16:23:18;24.70;42.00
32524;DHT22;18965;52.242;20.886;2022-07-29T16:25:47;24.80;42.30
32524;DHT22;18965;52.242;20.886;2022-07-29T16:28:13;24.80;42.40
32524;DHT22;18965;52.242;20.886;2022-07-29T16:30:39;24.80;42.20
32524;DHT22;18965;52.242;20.886;2022-07-29T16:33:06;24.70;41.90